Amistad, New Mexico
Current Conditions -  °F | °C
As of 7:53 PM on Sunday 23 Nov 2014 (Local Time) from KDHT Reporting Station
Clear Clear  
Wind Chill: 25°   Ceiling: Unl
Heat Index: 33°   Visibility: 10mi
Dew Point: 23°   Wind: 10mph
Humidity: 66%   Direction: 300°WNW
Pressure: 29.89"   Gusts: NA
Location:  35.92°N, 103.16°W
Report Text: KDHT 240253Z AUTO 30009KT 10SM CLR 01/M05 A2989 RMK AO2 SLP116 T00061050 51021
Loading
Personal Weather Stations






























Interactive Weather Map New forecast layout! Learn more

10-Day Weather Forecast

Advertisements
Track Severe Weather on mobile